Time;durP1;ratioP1;P1;durP2;ratioP2;P2;SDS_P1;SDS_P2;PMS_P1;PMS_P2;Temp;Humidity;BMP_temperature;BMP_pressure;BME280_temperature;BME280_humidity;BME280_pressure;Samples;Min_cycle;Max_cycle;Signal;HPM_P1;HPM_P2
2023/09/08 00:00:54;;;;;;;50.53;24.38;;;;;;;18.84;100.00;101725.94;6066757;19;20696;-74
2023/09/08 00:02:57;;;;;;;51.45;24.00;;;;;;;18.81;100.00;101720.81;6069028;19;20520;-73
2023/09/08 00:05:02;;;;;;;49.63;22.20;;;;;;;18.81;100.00;101720.81;6062605;19;20930;-71
2023/09/08 00:07:08;;;;;;;50.83;23.48;;;;;;;18.81;100.00;101724.31;6067252;19;20007;-72
2023/09/08 00:09:13;;;;;;;46.05;22.88;;;;;;;18.79;100.00;101723.56;6064975;19;20463;-73
2023/09/08 00:11:21;;;;;;;51.55;22.45;;;;;;;18.77;100.00;101724.59;6064863;19;20431;-71
2023/09/08 00:13:27;;;;;;;50.03;22.50;;;;;;;18.73;100.00;101723.91;6062456;19;20495;-74
2023/09/08 00:15:32;;;;;;;60.28;22.30;;;;;;;18.71;100.00;101723.13;6062209;19;20385;-73
2023/09/08 00:17:38;;;;;;;57.60;25.25;;;;;;;18.71;100.00;101720.47;6060761;19;20010;-72
2023/09/08 00:19:41;;;;;;;53.92;22.70;;;;;;;18.71;100.00;101722.28;6064125;19;20018;-73
2023/09/08 00:21:46;;;;;;;52.30;23.83;;;;;;;18.74;100.00;101725.59;6058946;19;20014;-74
2023/09/08 00:23:51;;;;;;;50.55;22.45;;;;;;;18.75;100.00;101731.84;6055811;19;20088;-72
2023/09/08 00:25:58;;;;;;;57.38;25.27;;;;;;;18.77;100.00;101732.59;6059862;19;20241;-73
2023/09/08 00:28:07;;;;;;;53.00;23.35;;;;;;;18.80;100.00;101735.94;6060235;19;20143;-71
2023/09/08 00:30:13;;;;;;;53.35;25.50;;;;;;;18.80;100.00;101737.72;6058759;19;20034;-73
2023/09/08 00:32:19;;;;;;;52.22;24.90;;;;;;;18.77;100.00;101728.16;6064205;19;20191;-73
2023/09/08 00:34:21;;;;;;;47.15;21.77;;;;;;;18.76;100.00;101731.75;6057616;19;20254;-72
2023/09/08 00:36:27;;;;;;;41.33;20.23;;;;;;;18.74;100.00;101735.41;6061630;19;20491;-71
2023/09/08 00:38:29;;;;;;;55.85;23.25;;;;;;;18.67;100.00;101734.94;6060931;19;20023;-72
2023/09/08 00:40:34;;;;;;;;;;;;;;;18.67;100.00;101724.28;6061912;19;20601;-71
2023/09/08 00:42:40;;;;;;;43.78;20.42;;;;;;;18.64;100.00;101729.78;6059832;19;19907;-73
2023/09/08 00:44:50;;;;;;;42.35;19.95;;;;;;;18.62;100.00;101732.53;6057540;19;20021;-73
2023/09/08 00:46:55;;;;;;;39.47;19.20;;;;;;;18.58;100.00;101727.50;6066757;19;20027;-73
2023/09/08 00:48:58;;;;;;;39.22;19.55;;;;;;;18.53;100.00;101733.09;6057272;19;20857;-72
2023/09/08 00:51:07;;;;;;;41.35;19.83;;;;;;;18.50;100.00;101735.94;6058061;19;20673;-72
2023/09/08 00:53:12;;;;;;;40.55;20.77;;;;;;;18.47;100.00;101738.78;6056061;19;20014;-74
2023/09/08 00:55:17;;;;;;;38.88;18.55;;;;;;;18.45;100.00;101737.16;6061073;19;20090;-72
2023/09/08 00:57:22;;;;;;;44.33;22.02;;;;;;;18.49;100.00;101736.91;6055442;19;20618;-72
2023/09/08 00:59:28;;;;;;;40.42;21.55;;;;;;;18.48;100.00;101726.31;6062059;19;20017;-73
2023/09/08 01:01:37;;;;;;;37.20;18.45;;;;;;;18.50;100.00;101737.75;6075534;19;20003;-73
2023/09/08 01:03:43;;;;;;;40.25;20.25;;;;;;;18.48;100.00;101723.66;6063132;19;20006;-73
2023/09/08 01:05:48;;;;;;;39.10;20.15;;;;;;;18.48;100.00;101726.31;6061799;19;20660;-72
2023/09/08 01:07:59;;;;;;;38.75;20.08;;;;;;;18.43;100.00;101724.81;6064501;19;20351;-72
2023/09/08 01:10:06;;;;;;;33.45;18.25;;;;;;;18.43;100.00;101723.94;6058193;19;20066;-71
2023/09/08 01:12:11;;;;;;;34.20;17.88;;;;;;;18.37;100.00;101721.63;6060783;19;20258;-72
2023/09/08 01:14:20;;;;;;;39.72;19.45;;;;;;;18.34;100.00;101717.34;6059974;19;20624;-72
2023/09/08 01:16:25;;;;;;;37.20;19.15;;;;;;;18.34;100.00;101721.81;6055403;19;20007;-73
2023/09/08 01:18:37;;;;;;;34.67;17.33;;;;;;;18.33;100.00;101725.44;5913536;19;2867531;-72
2023/09/08 01:20:57;;;;;;;38.70;19.92;;;;;;;18.24;100.00;101726.81;6058556;19;20241;-73
2023/09/08 01:23:21;;;;;;;32.47;16.83;;;;;;;18.20;100.00;101727.97;6068841;19;20070;-71
2023/09/08 01:25:29;;;;;;;33.22;16.83;;;;;;;18.17;100.00;101730.81;6066208;19;20547;-72
2023/09/08 01:27:34;;;;;;;32.00;17.27;;;;;;;18.13;100.00;101734.59;6067124;19;20014;-71
2023/09/08 01:29:43;;;;;;;32.22;18.20;;;;;;;18.07;100.00;101734.94;6059288;19;20014;-72
2023/09/08 01:31:48;;;;;;;37.50;18.73;;;;;;;18.12;100.00;101730.22;6060571;19;20039;-72
2023/09/08 01:33:54;;;;;;;33.40;19.30;;;;;;;18.15;100.00;101732.69;6068916;19;20009;-72
2023/09/08 01:35:59;;;;;;;33.95;17.70;;;;;;;18.14;100.00;101730.97;6065534;19;20413;-72
2023/09/08 01:38:05;;;;;;;29.20;16.42;;;;;;;18.10;100.00;101732.97;6065318;19;20011;-71
2023/09/08 01:40:11;;;;;;;27.38;15.75;;;;;;;18.06;100.00;101730.56;6063582;19;20460;-72
2023/09/08 01:42:19;;;;;;;30.08;16.05;;;;;;;17.98;100.00;101715.91;6057514;19;20081;-72
2023/09/08 01:44:24;;;;;;;32.25;19.30;;;;;;;17.99;100.00;101728.25;6060471;19;20339;-72
2023/09/08 01:46:29;;;;;;;30.05;16.70;;;;;;;17.99;100.00;101725.59;6064405;19;20212;-72
2023/09/08 01:48:34;;;;;;;32.72;17.60;;;;;;;17.98;100.00;101718.56;6072672;19;20614;-72
2023/09/08 01:50:40;;;;;;;30.95;16.70;;;;;;;18.04;100.00;101722.69;6061726;19;20010;-72
2023/09/08 01:52:45;;;;;;;31.80;18.13;;;;;;;18.04;100.00;101725.34;6066947;19;20027;-71
2023/09/08 01:54:48;;;;;;;30.98;17.88;;;;;;;18.04;100.00;101714.69;6061167;19;20016;-72
2023/09/08 01:56:55;;;;;;;32.63;17.40;;;;;;;18.04;100.00;101720.03;6067982;19;20014;-72
2023/09/08 01:59:04;;;;;;;27.50;17.42;;;;;;;18.00;100.00;101713.16;6067437;19;20357;-73
2023/09/08 02:01:09;;;;;;;31.08;17.10;;;;;;;17.94;100.00;101717.03;6069329;19;20006;-73
2023/09/08 02:03:15;;;;;;;33.72;19.25;;;;;;;17.88;100.00;101717.38;6068502;19;20003;-72
2023/09/08 02:05:17;;;;;;;26.48;15.85;;;;;;;17.85;100.00;101714.03;6071778;19;20404;-73
2023/09/08 02:07:23;;;;;;;27.83;16.95;;;;;;;17.86;100.00;101710.44;6070991;19;20011;-73
2023/09/08 02:09:36;;;;;;;33.70;18.67;;;;;;;17.85;100.00;101714.91;6065292;19;20127;-73
2023/09/08 02:11:41;;;;;;;30.90;17.02;;;;;;;17.84;100.00;101718.50;6066657;19;20034;-71
2023/09/08 02:13:48;;;;;;;28.38;16.70;;;;;;;17.83;100.00;101721.25;6060670;19;20006;-72
2023/09/08 02:15:55;;;;;;;34.08;19.35;;;;;;;17.74;100.00;101711.94;6066066;19;20478;-72
2023/09/08 02:18:00;;;;;;;30.08;17.50;;;;;;;17.73;100.00;101713.75;6060019;19;20013;-73
2023/09/08 02:20:08;;;;;;;32.83;17.45;;;;;;;17.71;100.00;101720.09;6053009;19;19998;-72
2023/09/08 02:22:14;;;;;;;30.00;17.15;;;;;;;17.73;100.00;101710.25;6063447;19;20116;-72
2023/09/08 02:24:16;;;;;;;29.88;17.73;;;;;;;17.75;100.00;101709.22;6057825;19;21117;-73
2023/09/08 02:26:22;;;;;;;32.15;19.15;;;;;;;17.73;100.00;101708.44;6058445;19;20740;-73
2023/09/08 02:28:30;;;;;;;33.20;17.80;;;;;;;17.76;100.00;101707.41;6056773;19;20501;-72
2023/09/08 02:30:36;;;;;;;30.15;17.50;;;;;;;17.80;100.00;101706.34;6058769;19;20481;-74
2023/09/08 02:32:45;;;;;;;28.88;18.05;;;;;;;17.80;100.00;101708.13;6064100;19;20293;-72
2023/09/08 02:34:49;;;;;;;28.70;18.45;;;;;;;17.79;100.00;101712.59;6070667;19;20006;-72
2023/09/08 02:36:54;;;;;;;28.15;17.40;;;;;;;17.78;100.00;101709.03;6068537;19;20263;-72
2023/09/08 02:38:59;;;;;;;31.45;18.40;;;;;;;17.78;100.00;101705.53;6072362;19;20094;-72
2023/09/08 02:41:04;;;;;;;31.63;18.20;;;;;;;17.82;100.00;101709.75;6072689;19;20017;-72
2023/09/08 02:43:10;;;;;;;32.90;18.65;;;;;;;17.78;100.00;101708.19;6074916;19;20038;-72
2023/09/08 02:45:18;;;;;;;27.88;16.25;;;;;;;17.77;100.00;101706.47;6072362;19;20675;-71
2023/09/08 02:47:25;;;;;;;30.63;18.33;;;;;;;17.78;100.00;101703.72;6073912;19;20007;-72
2023/09/08 02:49:33;;;;;;;29.70;17.48;;;;;;;17.77;100.00;101704.69;6071838;19;20489;-71
2023/09/08 02:51:38;;;;;;;29.05;16.40;;;;;;;17.77;100.00;101706.47;6073635;19;20016;-72
2023/09/08 02:53:44;;;;;;;31.75;19.30;;;;;;;17.80;100.00;101703.69;6078819;19;20124;-72
2023/09/08 02:55:49;;;;;;;29.00;18.02;;;;;;;17.77;100.00;101698.47;6072547;19;20013;-73
2023/09/08 02:57:55;;;;;;;29.23;17.60;;;;;;;17.67;100.00;101700.81;6073932;19;20318;-72
2023/09/08 03:00:00;;;;;;;28.90;17.25;;;;;;;17.65;100.00;101696.53;6074319;19;20076;-72
2023/09/08 03:02:05;;;;;;;29.20;17.45;;;;;;;17.62;100.00;101697.56;6069681;19;20010;-72
2023/09/08 03:04:13;;;;;;;30.05;17.95;;;;;;;17.61;100.00;101694.97;6070381;19;20215;-71
2023/09/08 03:06:22;;;;;;;26.92;16.90;;;;;;;17.59;100.00;101691.53;6074236;19;20321;-72
2023/09/08 03:08:25;;;;;;;28.38;18.48;;;;;;;17.62;100.00;101694.91;6068811;19;20038;-73
2023/09/08 03:10:33;;;;;;;;;;;;;;;17.61;100.00;101698.50;6073298;19;20018;-72
2023/09/08 03:12:40;;;;;;;26.02;17.15;;;;;;;17.61;100.00;101700.31;6075027;19;20305;-72
2023/09/08 03:14:45;;;;;;;30.35;17.85;;;;;;;17.61;100.00;101694.97;6071690;19;20042;-71
2023/09/08 03:16:51;;;;;;;29.75;17.45;;;;;;;17.55;100.00;101689.06;6073268;19;20006;-72
2023/09/08 03:18:59;;;;;;;30.42;17.58;;;;;;;17.48;100.00;101703.66;6070453;19;20918;-72
2023/09/08 03:21:09;;;;;;;27.88;16.15;;;;;;;17.45;100.00;101701.16;6064334;19;20048;-73
2023/09/08 03:23:17;;;;;;;27.50;16.98;;;;;;;17.49;100.00;101700.06;6066076;19;20086;-73
2023/09/08 03:25:22;;;;;;;30.45;17.80;;;;;;;17.48;100.00;101700.13;6066792;19;20065;-72
2023/09/08 03:27:28;;;;;;;29.20;16.27;;;;;;;17.44;100.00;101703.91;6057272;19;20019;-72
2023/09/08 03:29:33;;;;;;;24.80;16.50;;;;;;;17.40;100.00;101694.38;6063767;19;20010;-73
2023/09/08 03:31:39;;;;;;;28.10;16.67;;;;;;;17.39;100.00;101698.84;6063677;19;20159;-73
2023/09/08 03:33:44;;;;;;;25.55;16.70;;;;;;;17.37;100.00;101692.75;6060545;19;20238;-72
2023/09/08 03:35:47;;;;;;;30.40;18.35;;;;;;;17.35;100.00;101691.97;6062967;19;20010;-72
2023/09/08 03:37:52;;;;;;;29.80;18.23;;;;;;;17.32;100.00;101690.38;6058533;19;20420;-72
2023/09/08 03:40:05;;;;;;;33.25;18.00;;;;;;;17.29;100.00;101687.88;6066926;19;20007;-72
2023/09/08 03:42:10;;;;;;;26.52;16.77;;;;;;;17.26;100.00;101685.38;6059530;19;20463;-72
2023/09/08 03:44:15;;;;;;;28.67;17.17;;;;;;;17.30;100.00;101686.09;6062913;19;20742;-72
2023/09/08 03:46:20;;;;;;;29.35;18.75;;;;;;;17.29;100.00;101679.88;6065580;19;20095;-72
2023/09/08 03:48:26;;;;;;;31.13;17.52;;;;;;;17.30;100.00;101681.63;6071568;19;20035;-72
2023/09/08 03:50:32;;;;;;;30.30;18.70;;;;;;;17.32;100.00;101684.19;6070453;19;20359;-71
2023/09/08 03:52:37;;;;;;;29.60;17.83;;;;;;;17.32;100.00;101681.53;6068266;19;20056;-72
2023/09/08 03:54:42;;;;;;;29.33;17.70;;;;;;;17.33;100.00;101676.13;6072141;19;20355;-73
2023/09/08 03:56:50;;;;;;;28.75;18.23;;;;;;;17.31;100.00;101678.00;6068453;19;20348;-72
2023/09/08 03:58:55;;;;;;;26.42;16.75;;;;;;;17.24;100.00;101681.09;6069001;19;20574;-72
2023/09/08 04:01:00;;;;;;;29.00;17.35;;;;;;;17.17;100.00;101680.59;6070188;19;20010;-73
2023/09/08 04:03:06;;;;;;;26.23;16.15;;;;;;;17.09;100.00;101675.69;6067389;19;20054;-73
2023/09/08 04:05:13;;;;;;;29.73;17.55;;;;;;;17.05;100.00;101689.22;6069636;19;20817;-72
2023/09/08 04:07:18;;;;;;;30.52;18.33;;;;;;;17.07;100.00;101682.88;6076049;19;20038;-71
2023/09/08 04:09:23;;;;;;;27.27;17.00;;;;;;;17.05;100.00;101687.41;6071535;19;20114;-73
2023/09/08 04:11:28;;;;;;;26.15;16.45;;;;;;;17.05;100.00;101687.41;6074727;19;20071;-73
2023/09/08 04:13:36;;;;;;;29.08;17.67;;;;;;;17.06;100.00;101686.50;6074303;19;20014;-73
2023/09/08 04:15:39;;;;;;;29.63;18.17;;;;;;;17.08;100.00;101689.03;6075498;19;20014;-72
2023/09/08 04:17:47;;;;;;;30.05;18.83;;;;;;;17.08;100.00;101679.28;6072108;19;20007;-73
2023/09/08 04:19:55;;;;;;;27.52;17.55;;;;;;;17.09;100.00;101694.28;6069569;19;20014;-74
2023/09/08 04:22:00;;;;;;;30.65;17.30;;;;;;;17.08;100.00;101689.88;6075908;19;20017;-73
2023/09/08 04:24:06;;;;;;;28.55;17.52;;;;;;;17.06;100.00;101689.16;6072393;19;20007;-71
2023/09/08 04:26:11;;;;;;;31.10;18.27;;;;;;;17.07;100.00;101685.53;6071667;19;20465;-72
2023/09/08 04:28:16;;;;;;;28.15;17.10;;;;;;;17.04;100.00;101684.84;6074839;19;20010;-73
2023/09/08 04:30:25;;;;;;;31.30;18.55;;;;;;;17.02;100.00;101681.41;6071743;19;20190;-72
2023/09/08 04:32:30;;;;;;;27.05;15.60;;;;;;;16.98;100.00;101686.03;6072739;19;20010;-73
2023/09/08 04:34:35;;;;;;;26.58;16.98;;;;;;;16.99;100.00;101684.25;6069914;19;20007;-68
2023/09/08 04:36:41;;;;;;;26.38;16.85;;;;;;;17.01;100.00;101685.88;6074961;19;20473;-68
2023/09/08 04:38:46;;;;;;;32.25;17.80;;;;;;;16.99;100.00;101690.41;6070410;19;20356;-68
2023/09/08 04:40:51;;;;;;;30.60;17.33;;;;;;;16.98;100.00;101683.38;6075166;19;20046;-68
2023/09/08 04:42:58;;;;;;;32.92;17.27;;;;;;;16.97;100.00;101684.31;6071559;19;20003;-71
2023/09/08 04:45:03;;;;;;;26.48;17.08;;;;;;;16.97;100.00;101694.94;6068897;19;20318;-69
2023/09/08 04:47:11;;;;;;;27.75;16.00;;;;;;;16.94;100.00;101697.75;6068715;19;20216;-68
2023/09/08 04:49:13;;;;;;;29.15;16.10;;;;;;;16.90;100.00;101698.84;6074249;19;20034;-70
2023/09/08 04:51:18;;;;;;;32.35;16.67;;;;;;;16.86;100.00;101692.00;6073918;19;20013;-70
2023/09/08 04:53:24;;;;;;;26.88;16.50;;;;;;;16.85;100.00;101692.91;6070385;19;20176;-69
2023/09/08 04:55:29;;;;;;;29.20;17.85;;;;;;;16.84;100.00;101691.22;6070194;19;20017;-68
2023/09/08 04:57:34;;;;;;;28.38;17.77;;;;;;;16.81;100.00;101683.44;6066748;19;20584;-68
2023/09/08 04:59:42;;;;;;;24.77;14.90;;;;;;;16.77;100.00;101687.13;6064724;19;20028;-68
2023/09/08 05:01:58;;;;;;;29.15;17.45;;;;;;;16.76;100.00;101691.59;6077395;19;20452;-71
2023/09/08 05:04:15;;;;;;;32.65;17.77;;;;;;;16.74;100.00;101692.63;6089877;19;20484;-71
2023/09/08 05:07:01;;;;;;;28.30;17.38;;;;;;;16.71;100.00;101695.44;6002553;19;20035;-73
2023/09/08 05:09:37;;;;;;;31.25;17.90;;;;;;;16.72;100.00;101694.47;6071460;19;20499;-72
2023/09/08 05:11:47;;;;;;;24.55;15.85;;;;;;;16.69;100.00;101695.50;6069896;19;20006;-72
2023/09/08 05:13:53;;;;;;;29.73;19.20;;;;;;;16.66;100.00;101701.81;6070697;19;20629;-72
2023/09/08 05:16:10;;;;;;;31.52;19.45;;;;;;;16.65;100.00;101694.81;6071087;19;20447;-72
2023/09/08 05:18:24;;;;;;;28.42;18.05;;;;;;;16.61;100.00;101695.94;6064169;19;20123;-72
2023/09/08 05:20:39;;;;;;;30.77;18.83;;;;;;;16.61;100.00;101697.69;6076179;19;20580;-72
2023/09/08 05:22:52;;;;;;;33.65;18.13;;;;;;;16.59;100.00;101699.59;6086025;19;20095;-74
2023/09/08 05:25:10;;;;;;;29.55;17.40;;;;;;;16.55;100.00;101692.72;6061968;19;20165;-71
2023/09/08 05:27:22;;;;;;;29.67;17.13;;;;;;;16.59;100.00;101703.09;6075749;19;20006;-72
2023/09/08 05:29:47;;;;;;;29.27;16.67;;;;;;;16.56;100.00;101705.91;6039289;19;20007;-73
2023/09/08 05:31:52;;;;;;;29.73;17.70;;;;;;;16.67;100.00;101698.25;6072082;19;20010;-73
2023/09/08 05:33:59;;;;;;;33.58;19.17;;;;;;;16.76;100.00;101704.00;6074045;19;20039;-73
2023/09/08 05:36:23;;;;;;;32.15;18.55;;;;;;;16.78;100.00;101705.69;6076922;19;20072;-73
2023/09/08 05:38:34;;;;;;;30.80;19.23;;;;;;;16.85;100.00;101707.09;6011207;19;20046;-73
2023/09/08 05:41:04;;;;;;;30.83;18.55;;;;;;;16.86;100.00;101708.78;5987621;19;20068;-73
2023/09/08 05:56:22;;;;;;;30.83;18.73;;;;;;;17.64;100.00;101716.06;6033850;19;20006;-74
2023/09/08 05:58:47;;;;;;;31.25;18.40;;;;;;;17.79;100.00;101712.59;6089323;19;20302;-74
2023/09/08 06:01:01;;;;;;;32.22;18.75;;;;;;;17.93;100.00;101717.97;6094018;19;20009;-74
2023/09/08 06:03:27;;;;;;;35.25;18.30;;;;;;;18.07;100.00;101724.31;6101905;19;20551;-74
2023/09/08 06:05:38;;;;;;;33.83;18.40;;;;;;;18.18;100.00;101713.91;6104048;19;20006;-73
2023/09/08 06:07:49;;;;;;;31.80;19.42;;;;;;;18.28;100.00;101725.72;6103091;19;20175;-73
2023/09/08 06:10:11;;;;;;;28.67;16.90;;;;;;;18.43;100.00;101722.16;6099621;19;20548;-72
2023/09/08 06:12:16;;;;;;;29.92;18.88;;;;;;;18.53;100.00;101722.44;6103842;19;20142;-73
2023/09/08 06:14:21;;;;;;;33.33;19.65;;;;;;;18.67;100.00;101723.41;6098813;19;20008;-72
2023/09/08 06:16:29;;;;;;;30.92;19.02;;;;;;;18.77;100.00;101728.16;6101973;19;20070;-72
2023/09/08 06:18:39;;;;;;;30.85;19.73;;;;;;;18.90;100.00;101733.56;6099583;19;20010;-73
2023/09/08 06:20:51;;;;;;;31.98;20.20;;;;;;;18.97;100.00;101731.38;6087658;19;20295;-72
2023/09/08 06:22:58;;;;;;;36.38;20.65;;;;;;;19.10;100.00;101731.47;6091677;19;20720;-74
2023/09/08 06:25:03;;;;;;;35.30;20.83;;;;;;;19.18;100.00;101730.03;6088288;19;20021;-77
2023/09/08 06:27:09;;;;;;;30.20;19.02;;;;;;;19.27;100.00;101721.47;6092114;19;20422;-77
2023/09/08 06:29:11;;;;;;;31.75;19.38;;;;;;;19.43;100.00;101728.47;6096073;19;20022;-77
2023/09/08 06:31:16;;;;;;;;;;;;;;;19.48;100.00;101721.06;6092410;19;20016;-76
2023/09/08 06:33:22;;;;;;;30.05;18.85;;;;;;;19.57;100.00;101717.81;6093337;19;19911;-76
2023/09/08 06:35:30;;;;;;;28.52;19.50;;;;;;;19.65;100.00;101719.97;6094894;19;20002;-77
2023/09/08 06:37:40;;;;;;;30.67;17.42;;;;;;;19.76;100.00;101720.16;6095504;19;20017;-76
2023/09/08 06:39:46;;;;;;;31.23;19.45;;;;;;;19.80;99.09;101718.16;6100034;19;20002;-76
2023/09/08 06:41:51;;;;;;;27.73;18.83;;;;;;;19.87;99.79;101727.47;6098737;19;20350;-77
2023/09/08 06:43:59;;;;;;;30.35;18.63;;;;;;;20.00;99.46;101722.19;6093999;19;20503;-77
2023/09/08 06:46:04;;;;;;;32.80;19.27;;;;;;;20.05;98.11;101725.41;6094746;19;20010;-77
2023/09/08 06:48:07;;;;;;;31.20;18.92;;;;;;;20.24;98.38;101725.03;6096521;19;20030;-76
2023/09/08 06:50:12;;;;;;;28.00;18.27;;;;;;;20.39;97.74;101724.84;6104359;19;20402;-77
2023/09/08 06:52:17;;;;;;;28.35;17.70;;;;;;;20.63;96.35;101728.66;6096739;19;20372;-76
2023/09/08 06:54:25;;;;;;;30.27;18.95;;;;;;;20.80;96.55;101728.31;6090823;19;22326;-76
2023/09/08 06:56:31;;;;;;;30.50;18.25;;;;;;;20.90;95.39;101721.38;6093986;19;20212;-76
2023/09/08 06:58:36;;;;;;;30.80;18.50;;;;;;;21.04;94.21;101725.78;6097691;19;20078;-76
2023/09/08 07:00:44;;;;;;;29.80;18.85;;;;;;;21.17;94.13;101731.06;6072632;19;20494;-77
2023/09/08 07:02:49;;;;;;;31.30;18.95;;;;;;;21.22;93.11;101728.94;6078127;19;20392;-77
2023/09/08 07:04:54;;;;;;;30.05;19.30;;;;;;;21.41;92.07;101723.19;6074015;19;20442;-76
2023/09/08 07:07:02;;;;;;;28.90;18.80;;;;;;;21.60;92.00;101726.22;6079270;19;20038;-76
2023/09/08 07:09:08;;;;;;;28.52;19.13;;;;;;;21.77;90.60;101727.63;6089747;19;20272;-76
2023/09/08 07:11:16;;;;;;;28.88;17.85;;;;;;;22.09;89.42;101727.06;6097313;19;20010;-77
2023/09/08 07:13:21;;;;;;;26.35;16.55;;;;;;;22.35;89.29;101725.13;6079559;19;20018;-76
2023/09/08 07:15:27;;;;;;;30.42;19.25;;;;;;;22.38;87.62;101724.03;6068418;19;20486;-77
2023/09/08 07:17:35;;;;;;;30.70;17.67;;;;;;;22.45;87.49;101727.97;6074079;19;20449;-77
2023/09/08 07:19:42;;;;;;;29.83;18.50;;;;;;;22.60;86.54;101721.44;6081855;19;20168;-77
2023/09/08 07:21:49;;;;;;;30.98;16.65;;;;;;;22.83;86.01;101719.63;6070703;19;20234;-78
2023/09/08 07:24:02;;;;;;;30.73;17.73;;;;;;;23.02;85.68;101724.44;6071592;19;20010;-76
2023/09/08 07:26:07;;;;;;;27.27;17.08;;;;;;;23.23;84.17;101730.75;6064307;19;20003;-76
2023/09/08 07:28:15;;;;;;;27.17;16.80;;;;;;;23.37;83.01;101731.47;6068831;19;20036;-76
2023/09/08 07:30:21;;;;;;;25.65;16.75;;;;;;;23.70;83.17;101725.22;6072669;19;20265;-76
2023/09/08 07:32:27;;;;;;;28.10;16.17;;;;;;;23.93;81.63;101726.00;6074614;19;20047;-76
2023/09/08 07:34:32;;;;;;;26.48;17.05;;;;;;;24.01;80.78;101734.28;6075423;19;20028;-76
2023/09/08 07:36:38;;;;;;;24.25;15.88;;;;;;;24.13;79.81;101727.03;6079181;19;20023;-77
2023/09/08 07:38:44;;;;;;;27.75;17.27;;;;;;;24.19;79.44;101731.03;6080761;19;20086;-76
2023/09/08 07:40:53;;;;;;;28.63;16.48;;;;;;;24.47;79.08;101732.28;6077450;19;20463;-76
2023/09/08 07:42:59;;;;;;;26.83;15.75;;;;;;;24.58;78.90;101728.66;6070499;19;20010;-76
2023/09/08 07:45:09;;;;;;;25.42;15.95;;;;;;;24.76;77.42;101724.38;6075884;19;20030;-76
2023/09/08 07:47:15;;;;;;;27.63;16.30;;;;;;;24.87;77.28;101732.38;6078503;19;20476;-76
2023/09/08 07:49:21;;;;;;;24.58;15.57;;;;;;;25.00;76.14;101728.63;6081421;19;20451;-75
2023/09/08 07:51:26;;;;;;;27.75;16.63;;;;;;;25.28;75.68;101733.28;6086743;19;20517;-76
2023/09/08 07:53:31;;;;;;;24.83;16.02;;;;;;;25.46;74.56;101722.72;6078449;19;20022;-77
2023/09/08 07:55:36;;;;;;;25.88;16.23;;;;;;;25.43;74.25;101730.22;6084521;19;20007;-76
2023/09/08 07:57:45;;;;;;;24.05;15.23;;;;;;;25.55;72.55;101721.88;6067347;19;20014;-75
2023/09/08 07:59:51;;;;;;;25.88;14.82;;;;;;;25.90;72.25;101722.38;6072258;19;20069;-75
2023/09/08 08:01:59;;;;;;;24.95;14.80;;;;;;;25.96;71.82;101730.78;6067991;19;20280;-75
2023/09/08 08:04:05;;;;;;;24.92;14.70;;;;;;;26.05;71.55;101719.13;6068829;19;20009;-74
2023/09/08 08:06:10;;;;;;;26.02;14.38;;;;;;;25.86;71.44;101729.03;6072981;19;20043;-74
2023/09/08 08:08:15;;;;;;;23.00;14.88;;;;;;;26.28;71.20;101722.38;6078738;19;20578;-75
2023/09/08 08:10:21;;;;;;;25.35;14.00;;;;;;;26.49;69.06;101726.78;6068585;19;20048;-74
2023/09/08 08:12:24;;;;;;;25.85;15.40;;;;;;;26.32;69.62;101725.63;6073212;19;20010;-74
2023/09/08 08:14:29;;;;;;;24.88;15.35;;;;;;;26.36;68.49;101727.06;6072179;19;20011;-74
2023/09/08 08:16:34;;;;;;;24.58;14.38;;;;;;;26.52;68.51;101726.50;6064623;19;20003;-75
2023/09/08 08:18:42;;;;;;;25.70;14.55;;;;;;;26.75;69.04;101724.31;6072198;19;20198;-75
2023/09/08 08:20:45;;;;;;;22.98;14.38;;;;;;;26.96;68.08;101728.63;6070456;19;20109;-74
2023/09/08 08:22:51;;;;;;;26.80;15.13;;;;;;;26.87;66.85;101723.13;6069185;19;20014;-75
2023/09/08 08:24:57;;;;;;;23.50;15.05;;;;;;;27.17;66.15;101728.41;6070042;19;20552;-75
2023/09/08 08:27:02;;;;;;;25.10;15.00;;;;;;;27.19;67.20;101730.00;6070561;19;20077;-74
2023/09/08 08:29:07;;;;;;;23.25;15.00;;;;;;;27.13;65.52;101720.63;6066562;19;20268;-75
2023/09/08 08:31:13;;;;;;;25.30;14.70;;;;;;;27.37;66.79;101732.75;6067023;19;20523;-75
2023/09/08 08:33:19;;;;;;;24.95;14.18;;;;;;;27.66;65.10;101723.63;6067628;19;20414;-74
2023/09/08 08:35:29;;;;;;;23.30;13.80;;;;;;;27.73;64.74;101717.47;6071973;19;20568;-74
2023/09/08 08:37:34;;;;;;;27.48;15.93;;;;;;;27.60;63.31;101721.56;6066251;19;20014;-74
2023/09/08 08:39:37;;;;;;;26.55;14.88;;;;;;;27.72;63.18;101726.56;6062106;19;20130;-74
2023/09/08 08:41:43;;;;;;;25.02;15.30;;;;;;;27.87;63.02;101732.31;6069053;19;20010;-74
2023/09/08 08:43:51;;;;;;;23.45;14.07;;;;;;;28.08;62.64;101731.16;6071238;19;20052;-75
2023/09/08 08:45:58;;;;;;;25.20;14.68;;;;;;;27.98;62.22;101726.66;6066436;19;20074;-75
2023/09/08 08:48:06;;;;;;;22.15;13.73;;;;;;;28.32;62.26;101728.66;6065003;19;20455;-74
2023/09/08 08:50:13;;;;;;;24.45;14.80;;;;;;;27.98;62.29;101729.38;6066933;19;20288;-74
2023/09/08 08:52:22;;;;;;;21.20;14.05;;;;;;;28.02;62.80;101735.34;6056666;19;20405;-74
2023/09/08 08:54:31;;;;;;;21.70;12.88;;;;;;;28.52;63.01;101733.94;6064248;19;20291;-74
2023/09/08 08:56:39;;;;;;;21.38;13.50;;;;;;;28.67;60.90;101737.72;6071726;19;20251;-74
2023/09/08 08:58:45;;;;;;;20.77;13.20;;;;;;;28.50;61.31;101735.94;6069009;19;20027;-73
2023/09/08 09:00:50;;;;;;;20.25;12.73;;;;;;;28.69;60.17;101733.00;6066521;19;20357;-76
2023/09/08 09:02:56;;;;;;;21.95;13.20;;;;;;;28.85;60.43;101735.81;6071558;19;20024;-74
2023/09/08 09:05:18;;;;;;;19.90;13.05;;;;;;;29.30;59.72;101728.44;6072406;19;20006;-75
2023/09/08 09:07:29;;;;;;;23.00;13.43;;;;;;;29.25;59.68;101730.78;6073406;19;20259;-74
2023/09/08 09:09:35;;;;;;;20.93;12.83;;;;;;;28.95;58.99;101732.16;6070444;19;20457;-73
2023/09/08 09:11:40;;;;;;;19.88;12.48;;;;;;;28.93;58.92;101734.16;6066360;19;20351;-73
2023/09/08 09:13:45;;;;;;;20.30;12.13;;;;;;;29.21;58.08;101732.16;6069152;19;20059;-74
2023/09/08 09:15:51;;;;;;;19.42;12.02;;;;;;;29.56;58.33;101741.91;6071046;19;20209;-74
2023/09/08 09:18:05;;;;;;;25.17;12.40;;;;;;;29.42;57.29;101731.72;6070211;19;20340;-73
2023/09/08 09:20:17;;;;;;;19.52;11.55;;;;;;;29.57;58.05;101731.91;6065729;19;20006;-74
2023/09/08 09:22:25;;;;;;;19.25;10.38;;;;;;;29.58;57.24;101730.91;6074203;19;21785;-73
2023/09/08 09:24:36;;;;;;;15.57;10.65;;;;;;;29.76;55.82;101737.09;6074983;19;20074;-75
2023/09/08 09:26:42;;;;;;;14.60;9.23;;;;;;;29.97;54.76;101728.47;6075168;19;20284;-74
2023/09/08 09:28:52;;;;;;;17.77;9.68;;;;;;;30.19;55.86;101733.22;6068971;19;20021;-74
2023/09/08 09:30:59;;;;;;;19.02;10.07;;;;;;;29.89;54.05;101732.03;6072114;19;20028;-73
2023/09/08 09:33:08;;;;;;;18.85;10.80;;;;;;;29.90;55.81;101731.00;6071171;19;20497;-73
2023/09/08 09:35:13;;;;;;;19.77;11.07;;;;;;;30.23;54.91;101730.16;6077054;19;20039;-73
2023/09/08 09:37:18;;;;;;;14.50;9.60;;;;;;;30.51;55.34;101733.41;6071557;19;20169;-74
2023/09/08 09:39:27;;;;;;;19.50;11.38;;;;;;;30.47;54.58;101726.63;6072356;19;20407;-74
2023/09/08 09:41:35;;;;;;;18.35;12.02;;;;;;;30.69;53.66;101727.78;6073892;19;20437;-74
2023/09/08 09:43:41;;;;;;;17.52;11.13;;;;;;;30.44;53.04;101726.97;6072320;19;20058;-73
2023/09/08 09:45:46;;;;;;;19.50;10.10;;;;;;;30.59;52.95;101726.09;6071443;19;20010;-73
2023/09/08 09:47:53;;;;;;;13.15;8.90;;;;;;;30.96;53.40;101726.53;6072549;19;19999;-74